RJOZ(METAR)
08/15 04:00
METAR RJOZ 141900Z 27004KT 9999 FEW030 28/25 Q1009 RMK 1CU030 A2982=
戻る
トップページへ戻る
IMOC Co,.Ltd.